createdAt,value
2022-10-15T00:01:26.117Z,101249.97
2022-10-15T00:04:32.159Z,101242.13
2022-10-15T00:07:37.982Z,101232.88
2022-10-15T00:10:43.234Z,101250.34
2022-10-15T00:13:50.339Z,101251.59
2022-10-15T00:16:55.714Z,101253.16
2022-10-15T00:20:02.191Z,101248.41
2022-10-15T00:23:07.799Z,101245.13
2022-10-15T00:26:17.283Z,101245.56
2022-10-15T00:29:24.482Z,101256.38
2022-10-15T00:32:34.188Z,101259.81
2022-10-15T00:35:39.743Z,101247.34
2022-10-15T00:38:45.400Z,101243.63
2022-10-15T00:41:51.126Z,101243.22
2022-10-15T00:44:59.828Z,101244.16
2022-10-15T00:48:05.511Z,101241.41
2022-10-15T00:51:11.012Z,101230.16
2022-10-15T00:54:16.832Z,101246.28
2022-10-15T00:57:23.403Z,101239.53
2022-10-15T01:00:29.374Z,101234.00
2022-10-15T01:03:36.501Z,101231.22
2022-10-15T01:06:41.779Z,101225.88
2022-10-15T01:09:48.602Z,101224.41
2022-10-15T01:13:22.620Z,101226.09
2022-10-15T01:16:40.347Z,101226.03
2022-10-15T01:20:07.003Z,101222.09
2022-10-15T01:23:50.994Z,101225.75
2022-10-15T01:27:17.996Z,101230.34
2022-10-15T01:30:26.128Z,101223.81
2022-10-15T01:33:57.786Z,101224.81
2022-10-15T01:37:26.696Z,101221.47
2022-10-15T01:40:48.768Z,101220.66
2022-10-15T01:44:06.623Z,101217.22
2022-10-15T01:47:34.945Z,101215.28
2022-10-15T01:50:49.618Z,101209.84
2022-10-15T01:53:55.450Z,101201.72
2022-10-15T01:57:02.894Z,101197.72
2022-10-15T02:00:09.209Z,101183.78
2022-10-15T02:03:21.441Z,101177.31
2022-10-15T02:06:41.952Z,101184.44
2022-10-15T02:10:02.377Z,101180.81
2022-10-15T02:13:18.829Z,101189.44
2022-10-15T02:16:50.809Z,101189.59
2022-10-15T02:20:21.286Z,101175.50
2022-10-15T02:23:52.113Z,101163.72
2022-10-15T02:27:04.851Z,101167.97
2022-10-15T02:30:11.892Z,101175.00
2022-10-15T02:33:21.050Z,101169.22
2022-10-15T02:36:27.435Z,101171.72
2022-10-15T02:39:35.079Z,101172.53
2022-10-15T02:42:41.535Z,101170.84
2022-10-15T02:45:48.289Z,101163.72
2022-10-15T02:48:56.006Z,101161.38
2022-10-15T02:52:01.603Z,101150.53
2022-10-15T02:55:07.592Z,101157.25
2022-10-15T02:58:13.825Z,101168.06
2022-10-15T03:01:22.644Z,101163.75
2022-10-15T03:04:28.773Z,101159.16
2022-10-15T03:07:34.434Z,101150.81
2022-10-15T03:10:40.738Z,101155.47
2022-10-15T03:13:46.999Z,101158.47
2022-10-15T03:16:52.117Z,101165.44
2022-10-15T03:19:57.524Z,101160.53
2022-10-15T03:23:02.782Z,101157.38
2022-10-15T03:26:10.324Z,101144.38
2022-10-15T03:29:16.198Z,101143.00
2022-10-15T03:32:37.501Z,101143.81
2022-10-15T03:35:45.810Z,101141.03
2022-10-15T03:38:52.031Z,101142.59
2022-10-15T03:41:57.606Z,101138.25
2022-10-15T03:45:10.972Z,101130.31
2022-10-15T03:48:17.284Z,101130.69
2022-10-15T03:51:25.621Z,101132.44
2022-10-15T03:54:41.088Z,101129.56
2022-10-15T03:57:48.062Z,101124.97
2022-10-15T04:00:53.575Z,101119.84
2022-10-15T04:03:59.155Z,101123.38
2022-10-15T04:07:05.255Z,101130.31
2022-10-15T04:10:31.275Z,101117.53
2022-10-15T04:13:37.998Z,101123.41
2022-10-15T04:16:43.193Z,101126.22
2022-10-15T04:19:56.970Z,101127.59
2022-10-15T04:23:02.828Z,101121.97
2022-10-15T04:26:08.336Z,101123.03
2022-10-15T04:29:14.556Z,101129.28
2022-10-15T04:32:20.697Z,101133.38
2022-10-15T04:35:27.064Z,101144.84
2022-10-15T04:38:43.839Z,101143.00
2022-10-15T04:41:49.488Z,101147.03
2022-10-15T04:45:04.616Z,101150.25
2022-10-15T04:48:10.740Z,101160.91
2022-10-15T04:51:21.697Z,101160.25
2022-10-15T04:54:47.275Z,101154.72
2022-10-15T04:57:54.633Z,101158.53
2022-10-15T05:01:12.605Z,101152.88
2022-10-15T05:04:50.209Z,101149.22
2022-10-15T05:07:59.214Z,101150.09
2022-10-15T05:11:07.265Z,101151.16
2022-10-15T05:14:13.876Z,101153.50
2022-10-15T05:17:19.470Z,101154.91
2022-10-15T05:20:24.685Z,101147.13
2022-10-15T05:23:31.463Z,101148.88
2022-10-15T05:26:49.276Z,101145.69
2022-10-15T05:29:54.806Z,101150.94
2022-10-15T05:33:05.198Z,101152.28
2022-10-15T05:36:17.315Z,101151.72
2022-10-15T05:39:24.620Z,101148.16
2022-10-15T05:42:33.052Z,101144.31
2022-10-15T05:45:38.294Z,101147.00
2022-10-15T05:48:52.495Z,101152.84
2022-10-15T05:51:58.292Z,101156.44
2022-10-15T05:55:33.562Z,101172.13
2022-10-15T05:58:39.762Z,101176.53
2022-10-15T06:01:45.335Z,101186.81
2022-10-15T06:04:53.673Z,101199.03
2022-10-15T06:07:58.950Z,101199.56
2022-10-15T06:11:08.342Z,101206.75
2022-10-15T06:14:14.808Z,101208.53
2022-10-15T06:17:20.022Z,101201.28
2022-10-15T06:20:28.507Z,101207.38
2022-10-15T06:23:35.172Z,101209.22
2022-10-15T06:26:40.716Z,101208.00
2022-10-15T06:29:45.738Z,101206.88
2022-10-15T06:32:53.047Z,101208.56
2022-10-15T06:36:03.836Z,101212.19
2022-10-15T06:39:09.268Z,101213.41
2022-10-15T06:42:14.592Z,101218.72
2022-10-15T06:45:21.816Z,101216.28
2022-10-15T06:48:28.189Z,101218.28
2022-10-15T06:51:33.567Z,101219.41
2022-10-15T06:54:39.255Z,101220.03
2022-10-15T06:57:46.508Z,101217.72
2022-10-15T07:01:04.160Z,101224.53
2022-10-15T07:04:09.514Z,101226.84
2022-10-15T07:07:15.534Z,101224.34
2022-10-15T07:10:21.980Z,101219.97
2022-10-15T07:13:27.683Z,101220.84
2022-10-15T07:16:33.319Z,101216.22
2022-10-15T07:19:38.819Z,101216.94
2022-10-15T07:22:44.520Z,101215.09
2022-10-15T07:25:49.854Z,101206.81
2022-10-15T07:28:55.600Z,101219.22
2022-10-15T07:32:01.442Z,101231.09
2022-10-15T07:35:07.030Z,101230.09
2022-10-15T07:38:12.739Z,101224.75
2022-10-15T07:41:18.204Z,101225.31
2022-10-15T07:44:23.630Z,101234.16
2022-10-15T07:47:29.001Z,101237.69
2022-10-15T07:50:36.267Z,101245.31
2022-10-15T07:53:44.745Z,101251.31
2022-10-15T07:56:50.157Z,101255.38
2022-10-15T07:59:55.169Z,101257.22
2022-10-15T08:03:00.063Z,101256.47
2022-10-15T08:06:07.757Z,101264.28
2022-10-15T08:09:13.107Z,101264.84
2022-10-15T08:12:18.783Z,101272.91
2022-10-15T08:15:23.857Z,101276.66
2022-10-15T08:18:29.339Z,101278.78
2022-10-15T08:21:34.748Z,101278.06
2022-10-15T08:24:39.574Z,101277.56
2022-10-15T08:27:45.084Z,101276.00
2022-10-15T08:30:50.106Z,101284.34
2022-10-15T08:33:55.313Z,101280.81
2022-10-15T08:37:00.715Z,101284.88
2022-10-15T08:40:08.222Z,101286.50
2022-10-15T08:43:24.994Z,101291.88
2022-10-15T08:46:42.662Z,101288.66
2022-10-15T08:49:59.152Z,101291.38
2022-10-15T08:53:30.065Z,101284.88
2022-10-15T08:56:44.149Z,101289.44
2022-10-15T09:00:04.391Z,101288.09
2022-10-15T09:03:40.182Z,101296.22
2022-10-15T09:06:52.269Z,101301.63
2022-10-15T09:10:17.062Z,101300.78
2022-10-15T09:13:28.740Z,101305.56
2022-10-15T09:16:39.313Z,101305.81
2022-10-15T09:19:50.757Z,101300.63
2022-10-15T09:22:56.091Z,101301.41
2022-10-15T09:26:19.697Z,101308.91
2022-10-15T09:29:38.837Z,101301.94
2022-10-15T09:33:03.520Z,101290.91
2022-10-15T09:36:41.365Z,101299.00
2022-10-15T09:39:59.687Z,101293.81
2022-10-15T09:43:06.390Z,101293.50
2022-10-15T09:46:12.214Z,101296.00
2022-10-15T09:49:31.264Z,101293.28
2022-10-15T09:52:48.163Z,101284.22
2022-10-15T09:56:20.519Z,101293.94
2022-10-15T09:59:26.242Z,101295.78
2022-10-15T10:02:31.628Z,101294.38
2022-10-15T10:05:40.392Z,101295.78
2022-10-15T10:09:17.714Z,101293.44
2022-10-15T10:12:28.731Z,101294.50
2022-10-15T10:15:34.466Z,101297.97
2022-10-15T10:18:40.597Z,101298.59
2022-10-15T10:21:46.936Z,101295.13
2022-10-15T10:24:52.448Z,101296.34
2022-10-15T10:28:05.762Z,101295.38
2022-10-15T10:31:12.617Z,101294.63
2022-10-15T10:34:29.381Z,101294.94
2022-10-15T10:37:43.271Z,101298.34
2022-10-15T10:41:13.455Z,101289.00
2022-10-15T10:44:26.591Z,101292.47
2022-10-15T10:47:39.917Z,101296.75
2022-10-15T10:50:47.430Z,101289.06
2022-10-15T10:53:59.959Z,101291.19
2022-10-15T10:57:12.392Z,101297.13
2022-10-15T11:00:41.415Z,101290.66
2022-10-15T11:03:48.739Z,101279.63
2022-10-15T11:07:09.373Z,101278.16
2022-10-15T11:10:26.236Z,101278.66
2022-10-15T11:13:31.607Z,101287.81
2022-10-15T11:16:58.776Z,101278.66
2022-10-15T11:20:53.233Z,101271.72
2022-10-15T11:24:11.241Z,101270.03
2022-10-15T11:27:51.690Z,101272.38
2022-10-15T11:31:26.617Z,101275.44
2022-10-15T11:35:05.421Z,101268.69
2022-10-15T11:38:29.899Z,101271.25
2022-10-15T11:42:00.400Z,101271.03
2022-10-15T11:45:16.752Z,101266.56
2022-10-15T11:48:29.451Z,101258.50
2022-10-15T11:51:49.883Z,101257.09
2022-10-15T11:55:02.024Z,101252.94
2022-10-15T11:58:17.317Z,101242.75
2022-10-15T12:01:34.466Z,101240.06
2022-10-15T12:04:56.940Z,101244.16
2022-10-15T12:11:27.876Z,101245.34
2022-10-15T12:14:36.553Z,101235.34
2022-10-15T12:18:00.513Z,101241.38
2022-10-15T12:21:33.938Z,101238.75
2022-10-15T12:24:44.702Z,101244.81
2022-10-15T12:28:04.346Z,101236.72
2022-10-15T12:31:09.703Z,101233.50
2022-10-15T12:34:41.140Z,101234.63
2022-10-15T12:37:48.324Z,101230.72
2022-10-15T12:41:00.728Z,101227.56
2022-10-15T12:44:21.374Z,101212.63
2022-10-15T12:47:54.397Z,101207.69
2022-10-15T12:51:24.448Z,101209.84
2022-10-15T12:54:45.393Z,101206.50
2022-10-15T12:58:26.880Z,101207.44
2022-10-15T13:01:44.180Z,101204.84
2022-10-15T13:04:49.558Z,101197.97
2022-10-15T13:07:57.921Z,101203.06
2022-10-15T13:11:03.646Z,101198.59
2022-10-15T13:14:40.270Z,101189.69
2022-10-15T13:17:46.321Z,101186.47
2022-10-15T13:20:56.498Z,101182.31
2022-10-15T13:24:01.825Z,101180.63
2022-10-15T13:27:44.062Z,101182.06
2022-10-15T13:30:50.613Z,101187.66
2022-10-15T13:34:29.667Z,101181.97
2022-10-15T13:37:38.869Z,101186.91
2022-10-15T13:40:49.649Z,101179.81
2022-10-15T13:43:59.477Z,101174.91
2022-10-15T13:47:23.883Z,101180.75
2022-10-15T13:50:33.337Z,101183.78
2022-10-15T13:53:41.920Z,101182.75
2022-10-15T13:56:56.227Z,101178.44
2022-10-15T14:00:01.436Z,101189.78
2022-10-15T14:03:23.196Z,101176.50
2022-10-15T14:06:33.020Z,101189.59
2022-10-15T14:09:40.444Z,101186.81
2022-10-15T14:12:48.083Z,101184.28
2022-10-15T14:16:17.656Z,101186.59
2022-10-15T14:19:30.352Z,101172.19
2022-10-15T14:22:36.295Z,101175.59
2022-10-15T14:25:42.193Z,101182.94
2022-10-15T14:28:52.518Z,101179.31
2022-10-15T14:31:57.996Z,101186.13
2022-10-15T14:35:08.657Z,101186.97
2022-10-15T14:38:17.538Z,101179.81
2022-10-15T14:41:31.569Z,101181.41
2022-10-15T14:44:48.350Z,101177.28
2022-10-15T14:48:03.526Z,101174.66
2022-10-15T14:51:16.592Z,101180.63
2022-10-15T14:54:29.922Z,101182.22
2022-10-15T14:57:38.278Z,101185.50
2022-10-15T15:03:52.937Z,101184.81
2022-10-15T15:06:58.100Z,101191.78
2022-10-15T15:10:05.185Z,101186.72
2022-10-15T15:13:14.364Z,101178.75
2022-10-15T15:16:20.024Z,101176.34
2022-10-15T15:19:25.366Z,101189.53
2022-10-15T15:22:32.546Z,101181.03
2022-10-15T15:25:37.908Z,101181.19
2022-10-15T15:28:43.621Z,101185.44
2022-10-15T15:31:49.600Z,101180.06
2022-10-15T15:34:58.235Z,101190.47
2022-10-15T15:38:06.632Z,101188.44
2022-10-15T15:41:17.433Z,101188.50
2022-10-15T15:44:22.902Z,101190.47
2022-10-15T15:47:28.361Z,101186.22
2022-10-15T15:50:34.951Z,101195.38
2022-10-15T15:53:40.512Z,101190.13
2022-10-15T15:56:46.095Z,101190.16
2022-10-15T15:59:51.213Z,101193.97
2022-10-15T16:02:57.974Z,101199.66
2022-10-15T16:06:06.542Z,101201.72
2022-10-15T16:09:11.966Z,101202.84
2022-10-15T16:12:17.033Z,101204.28
2022-10-15T16:15:22.157Z,101214.66
2022-10-15T16:18:27.898Z,101221.06
2022-10-15T16:21:33.747Z,101214.34
2022-10-15T16:24:39.730Z,101220.88
2022-10-15T16:27:52.554Z,101226.06
2022-10-15T16:31:18.105Z,101232.09
2022-10-15T16:34:23.836Z,101236.28
2022-10-15T16:37:29.491Z,101240.38
2022-10-15T16:40:35.957Z,101239.22
2022-10-15T16:43:42.504Z,101248.47
2022-10-15T16:46:48.224Z,101252.53
2022-10-15T16:49:55.384Z,101251.72
2022-10-15T16:53:00.942Z,101258.50
2022-10-15T16:56:09.660Z,101272.00
2022-10-15T16:59:15.200Z,101271.22
2022-10-15T17:02:20.697Z,101280.78
2022-10-15T17:05:26.835Z,101283.56
2022-10-15T17:08:48.552Z,101284.66
2022-10-15T17:11:54.066Z,101302.19
2022-10-15T17:14:59.634Z,101301.13
2022-10-15T17:18:05.500Z,101298.69
2022-10-15T17:21:13.154Z,101308.97
2022-10-15T17:24:20.014Z,101317.31
2022-10-15T17:27:25.434Z,101314.66
2022-10-15T17:30:31.108Z,101322.19
2022-10-15T17:33:38.204Z,101328.44
2022-10-15T17:36:47.694Z,101334.38
2022-10-15T17:39:54.072Z,101339.78
2022-10-15T17:42:59.870Z,101341.44
2022-10-15T17:46:08.331Z,101343.56
2022-10-15T17:49:18.625Z,101352.50
2022-10-15T17:52:23.769Z,101354.94
2022-10-15T17:55:30.595Z,101359.31
2022-10-15T17:58:40.282Z,101352.84
2022-10-15T18:01:57.911Z,101356.09
2022-10-15T18:05:06.500Z,101355.78
2022-10-15T18:08:12.881Z,101360.38
2022-10-15T18:11:22.069Z,101370.66
2022-10-15T18:14:28.982Z,101375.25
2022-10-15T18:17:34.202Z,101383.59
2022-10-15T18:20:41.977Z,101381.47
2022-10-15T18:23:48.000Z,101379.88
2022-10-15T18:26:53.770Z,101388.84
2022-10-15T18:29:59.551Z,101396.41
2022-10-15T18:33:06.535Z,101397.47
2022-10-15T18:36:15.179Z,101405.31
2022-10-15T18:39:20.813Z,101406.41
2022-10-15T18:42:26.566Z,101411.81
2022-10-15T18:45:33.103Z,101413.97
2022-10-15T18:48:38.731Z,101410.72
2022-10-15T18:51:46.520Z,101410.97
2022-10-15T18:54:52.345Z,101417.47
2022-10-15T18:57:57.638Z,101415.84
2022-10-15T19:01:30.337Z,101411.28
2022-10-15T19:04:36.573Z,101418.81
2022-10-15T19:07:42.221Z,101416.91
2022-10-15T19:10:48.199Z,101418.81
2022-10-15T19:13:53.650Z,101424.53
2022-10-15T19:16:59.965Z,101426.41
2022-10-15T19:20:06.031Z,101429.34
2022-10-15T19:23:11.836Z,101432.06
2022-10-15T19:26:17.359Z,101428.00
2022-10-15T19:29:23.079Z,101429.34
2022-10-15T19:32:31.106Z,101425.81
2022-10-15T19:35:41.886Z,101430.69
2022-10-15T19:38:47.326Z,101430.69
2022-10-15T19:41:55.228Z,101423.94
2022-10-15T19:45:00.754Z,101428.00
2022-10-15T19:48:06.681Z,101438.22
2022-10-15T19:51:12.826Z,101434.19
2022-10-15T19:54:18.615Z,101443.91
2022-10-15T19:57:24.581Z,101443.63
2022-10-15T20:00:30.537Z,101444.72
2022-10-15T20:06:46.656Z,101450.94
2022-10-15T20:09:52.550Z,101453.06
2022-10-15T20:12:57.835Z,101454.41
2022-10-15T20:16:06.535Z,101454.13
2022-10-15T20:19:13.205Z,101463.25
2022-10-15T20:22:18.570Z,101463.81
2022-10-15T20:25:24.139Z,101467.59
2022-10-15T20:28:29.505Z,101468.31
2022-10-15T20:31:36.162Z,101471.56
2022-10-15T20:34:41.506Z,101467.28
2022-10-15T20:37:47.514Z,101476.38
2022-10-15T20:40:53.743Z,101487.19
2022-10-15T20:43:59.394Z,101485.63
2022-10-15T20:47:09.164Z,101491.03
2022-10-15T20:50:21.657Z,101498.56
2022-10-15T20:53:29.369Z,101502.59
2022-10-15T20:56:34.960Z,101512.59
2022-10-15T20:59:40.756Z,101508.00
2022-10-15T21:02:46.470Z,101512.31
2022-10-15T21:05:51.951Z,101517.41
2022-10-15T21:08:58.698Z,101519.31
2022-10-15T21:12:06.156Z,101525.00
2022-10-15T21:15:11.410Z,101529.84
2022-10-15T21:18:16.889Z,101538.50
2022-10-15T21:21:22.350Z,101538.75
2022-10-15T21:24:28.529Z,101537.97
2022-10-15T21:27:34.553Z,101545.81
2022-10-15T21:30:41.169Z,101542.28
2022-10-15T21:33:46.839Z,101551.47
2022-10-15T21:36:52.501Z,101555.75
2022-10-15T21:39:57.620Z,101560.03
2022-10-15T21:43:03.159Z,101558.19
2022-10-15T21:46:11.891Z,101568.19
2022-10-15T21:49:17.462Z,101565.25
2022-10-15T21:52:24.161Z,101564.41
2022-10-15T21:55:30.692Z,101561.75
2022-10-15T21:58:38.391Z,101565.25
2022-10-15T22:01:46.047Z,101560.94
2022-10-15T22:04:51.590Z,101570.66
2022-10-15T22:07:57.134Z,101567.06
2022-10-15T22:11:16.272Z,101574.06
2022-10-15T22:14:21.989Z,101571.91
2022-10-15T22:17:27.191Z,101590.25
2022-10-15T22:20:32.658Z,101584.84
2022-10-15T22:23:38.187Z,101589.38
2022-10-15T22:26:54.649Z,101591.53
2022-10-15T22:30:00.329Z,101600.25
2022-10-15T22:33:06.055Z,101604.78
2022-10-15T22:36:16.845Z,101601.03
2022-10-15T22:39:22.379Z,101603.69
2022-10-15T22:42:28.258Z,101600.72
2022-10-15T22:45:33.881Z,101597.44
2022-10-15T22:48:42.382Z,101602.06
2022-10-15T22:51:49.222Z,101601.94
2022-10-15T22:54:54.573Z,101606.03
2022-10-15T22:58:00.251Z,101608.75
2022-10-15T23:01:21.099Z,101617.16
2022-10-15T23:04:26.731Z,101613.94
2022-10-15T23:07:32.451Z,101607.91
2022-10-15T23:10:39.218Z,101605.53
2022-10-15T23:13:47.294Z,101605.00
2022-10-15T23:16:52.518Z,101607.16
2022-10-15T23:19:58.046Z,101609.47
2022-10-15T23:23:03.075Z,101607.44
2022-10-15T23:26:13.280Z,101610.38
2022-10-15T23:29:24.672Z,101606.03
2022-10-15T23:32:30.058Z,101614.03
2022-10-15T23:38:49.775Z,101618.72
2022-10-15T23:41:55.986Z,101627.63
2022-10-15T23:45:01.272Z,101627.25
2022-10-15T23:48:07.371Z,101625.84
2022-10-15T23:51:22.106Z,101625.31
2022-10-15T23:54:27.734Z,101627.81
2022-10-15T23:57:33.368Z,101621.22
